ANZ220 YSSY-NZCH
Flight info
| Callsign | ANZ220 |
|---|---|
| Flight time | 2h 40m |
| Altitude | 35000 |
| Route | CAWLY M636 PLUGA N750 VANDA |
| Aircraft | B77W/H-SDE1E2E3FGHIJ2J3J4J5M1RWXY/LB1D1 |
Departure
| Time | 2026-04-25 05:19 |
|---|---|
| Airport | Sydney Kingsford Smith International Airport (YSSY) |
Arrival
| Time | 2026-04-25 08:00 |
|---|---|
| Airport | Christchurch International Airport (NZCH) |
| Time | Latitude | Longitude | Altitude | Speed | Heading |
|---|---|---|---|---|---|
| 2026-04-25 04:45 | -33.93932 | 151.16702 | 34 ft | 0 kts | 261° |
| 2026-04-25 05:04 | -33.93931 | 151.16710 | 34 ft | 2 kts | 261° |
| 2026-04-25 05:05 | -33.93929 | 151.16728 | 34 ft | 2 kts | 261° |
| 2026-04-25 05:05 | -33.93924 | 151.16745 | 34 ft | 2 kts | 232° |
| 2026-04-25 05:05 | -33.93913 | 151.16757 | 34 ft | 2 kts | 206° |
| 2026-04-25 05:05 | -33.93899 | 151.16762 | 34 ft | 2 kts | 182° |
| 2026-04-25 05:06 | -33.93885 | 151.16760 | 34 ft | 2 kts | 162° |
| 2026-04-25 05:06 | -33.93876 | 151.16756 | 34 ft | 0 kts | 161° |
| 2026-04-25 05:06 | -33.93890 | 151.16760 | 34 ft | 5 kts | 165° |
| 2026-04-25 05:06 | -33.93922 | 151.16771 | 34 ft | 2 kts | 163° |
| 2026-04-25 05:07 | -33.93930 | 151.16774 | 34 ft | 0 kts | 164° |
| 2026-04-25 05:09 | -33.93961 | 151.16785 | 34 ft | 9 kts | 164° |
| 2026-04-25 05:10 | -33.94039 | 151.16824 | 34 ft | 13 kts | 126° |
| 2026-04-25 05:10 | -33.94034 | 151.16956 | 34 ft | 17 kts | 75° |
| 2026-04-25 05:10 | -33.93998 | 151.17108 | 34 ft | 20 kts | 73° |
| 2026-04-25 05:10 | -33.94046 | 151.17236 | 34 ft | 19 kts | 154° |
| 2026-04-25 05:11 | -33.94179 | 151.17276 | 34 ft | 19 kts | 167° |
| 2026-04-25 05:11 | -33.94315 | 151.17314 | 34 ft | 20 kts | 167° |
| 2026-04-25 05:11 | -33.94370 | 151.17329 | 34 ft | 0 kts | 168° |
| 2026-04-25 05:13 | -33.94378 | 151.17340 | 34 ft | 1 kts | 104° |
| 2026-04-25 05:13 | -33.94378 | 151.17348 | 34 ft | 1 kts | 78° |
| 2026-04-25 05:13 | -33.94371 | 151.17371 | 34 ft | 0 kts | 63° |
| 2026-04-25 05:15 | -33.94371 | 151.17387 | 34 ft | 9 kts | 107° |
| 2026-04-25 05:15 | -33.94508 | 151.17517 | 34 ft | 39 kts | 151° |
| 2026-04-25 05:15 | -33.94823 | 151.17650 | 34 ft | 52 kts | 167° |
| 2026-04-25 05:16 | -33.95141 | 151.17729 | 34 ft | 38 kts | 165° |
| 2026-04-25 05:16 | -33.95203 | 151.17943 | 34 ft | 28 kts | 79° |
| 2026-04-25 05:16 | -33.95163 | 151.18166 | 34 ft | 26 kts | 77° |
| 2026-04-25 05:16 | -33.95124 | 151.18368 | 34 ft | 23 kts | 78° |
| 2026-04-25 05:17 | -33.95058 | 151.18507 | 34 ft | 18 kts | 36° |
| 2026-04-25 05:17 | -33.95005 | 151.18630 | 34 ft | 15 kts | 78° |
| 2026-04-25 05:17 | -33.94984 | 151.18747 | 34 ft | 13 kts | 78° |
| 2026-04-25 05:17 | -33.95010 | 151.18839 | 34 ft | 12 kts | 152° |
| 2026-04-25 05:18 | -33.95033 | 151.18848 | 34 ft | 0 kts | 167° |
| 2026-04-25 05:19 | -33.95046 | 151.18851 | 34 ft | 19 kts | 167° |
| 2026-04-25 05:19 | -33.95528 | 151.18977 | 34 ft | 119 kts | 167° |
| 2026-04-25 05:19 | -33.96615 | 151.19244 | 167 ft | 191 kts | 169° |
| 2026-04-25 05:19 | -33.97925 | 151.19617 | 1248 ft | 195 kts | 153° |
| 2026-04-25 05:20 | -33.98944 | 151.20448 | 2269 ft | 179 kts | 131° |
| 2026-04-25 05:20 | -33.99658 | 151.21736 | 2663 ft | 198 kts | 114° |
| 2026-04-25 05:20 | -34.00294 | 151.23303 | 3214 ft | 216 kts | 114° |
| 2026-04-25 05:20 | -34.01136 | 151.24863 | 3823 ft | 236 kts | 134° |
| 2026-04-25 05:21 | -34.02426 | 151.26193 | 4490 ft | 254 kts | 140° |
| 2026-04-25 05:21 | -34.03856 | 151.27559 | 5213 ft | 269 kts | 140° |
| 2026-04-25 05:21 | -34.05313 | 151.28969 | 6173 ft | 274 kts | 140° |
| 2026-04-25 05:21 | -34.06820 | 151.30440 | 6943 ft | 287 kts | 140° |
| 2026-04-25 05:22 | -34.08406 | 151.31993 | 7693 ft | 302 kts | 140° |
| 2026-04-25 05:22 | -34.10061 | 151.33614 | 8370 ft | 318 kts | 140° |
| 2026-04-25 05:22 | -34.11821 | 151.35339 | 9073 ft | 334 kts | 140° |
| 2026-04-25 05:22 | -34.13490 | 151.37344 | 9734 ft | 348 kts | 125° |
| 2026-04-25 05:23 | -34.14625 | 151.39966 | 10483 ft | 360 kts | 112° |
| 2026-04-25 05:23 | -34.15543 | 151.42781 | 11423 ft | 367 kts | 111° |
| 2026-04-25 05:23 | -34.16465 | 151.45670 | 12443 ft | 370 kts | 111° |
| 2026-04-25 05:23 | -34.17397 | 151.48567 | 13393 ft | 376 kts | 111° |
| 2026-04-25 05:24 | -34.18346 | 151.51509 | 14318 ft | 381 kts | 111° |
| 2026-04-25 05:24 | -34.19308 | 151.54480 | 15297 ft | 384 kts | 111° |
| 2026-04-25 05:24 | -34.20271 | 151.57454 | 16244 ft | 387 kts | 111° |
| 2026-04-25 05:24 | -34.21262 | 151.60516 | 17088 ft | 393 kts | 111° |
| 2026-04-25 05:25 | -34.22259 | 151.63599 | 17965 ft | 397 kts | 111° |
| 2026-04-25 05:25 | -34.23254 | 151.66675 | 18807 ft | 402 kts | 111° |
| 2026-04-25 05:25 | -34.24273 | 151.69832 | 19679 ft | 405 kts | 111° |
| 2026-04-25 05:25 | -34.25292 | 151.72986 | 20517 ft | 409 kts | 111° |
| 2026-04-25 05:26 | -34.26328 | 151.76201 | 21329 ft | 413 kts | 111° |
| 2026-04-25 05:26 | -34.27375 | 151.79451 | 22140 ft | 416 kts | 111° |
| 2026-04-25 05:26 | -34.28413 | 151.82674 | 22876 ft | 420 kts | 111° |
| 2026-04-25 05:26 | -34.29470 | 151.85962 | 23617 ft | 423 kts | 111° |
| 2026-04-25 05:27 | -34.30543 | 151.89305 | 24306 ft | 428 kts | 111° |
| 2026-04-25 05:27 | -34.31625 | 151.92679 | 24848 ft | 435 kts | 111° |
| 2026-04-25 05:27 | -34.32803 | 151.96054 | 25277 ft | 443 kts | 117° |
| 2026-04-25 05:27 | -34.34316 | 151.99309 | 25829 ft | 449 kts | 120° |
| 2026-04-25 05:28 | -34.35894 | 152.02545 | 26487 ft | 452 kts | 121° |
| 2026-04-25 05:28 | -34.37512 | 152.05858 | 27193 ft | 454 kts | 121° |
| 2026-04-25 05:28 | -34.39098 | 152.09113 | 27832 ft | 458 kts | 121° |
| 2026-04-25 05:28 | -34.40715 | 152.12434 | 28293 ft | 464 kts | 121° |
| 2026-04-25 05:29 | -34.42361 | 152.15822 | 28349 ft | 467 kts | 121° |
| 2026-04-25 05:29 | -34.45649 | 152.22604 | 28350 ft | 465 kts | 121° |
| 2026-04-25 05:30 | -34.48888 | 152.29300 | 28353 ft | 465 kts | 121° |
| 2026-04-25 05:30 | -34.52147 | 152.36050 | 28354 ft | 464 kts | 121° |
| 2026-04-25 05:31 | -34.55394 | 152.42789 | 28365 ft | 467 kts | 121° |
| 2026-04-25 05:31 | -34.57044 | 152.46219 | 28724 ft | 475 kts | 121° |
| 2026-04-25 05:31 | -34.58709 | 152.49683 | 29601 ft | 473 kts | 121° |
| 2026-04-25 05:31 | -34.60342 | 152.53085 | 30514 ft | 470 kts | 121° |
| 2026-04-25 05:32 | -34.61969 | 152.56476 | 31341 ft | 467 kts | 121° |
| 2026-04-25 05:32 | -34.63594 | 152.59866 | 32060 ft | 466 kts | 121° |
| 2026-04-25 05:32 | -34.65227 | 152.63278 | 32766 ft | 465 kts | 122° |
| 2026-04-25 05:32 | -34.66851 | 152.66675 | 33436 ft | 464 kts | 121° |
| 2026-04-25 05:33 | -34.68458 | 152.70038 | 34058 ft | 464 kts | 122° |
| 2026-04-25 05:33 | -34.70074 | 152.73425 | 34740 ft | 462 kts | 121° |
| 2026-04-25 05:33 | -34.71675 | 152.76781 | 35328 ft | 462 kts | 122° |
| 2026-04-25 05:34 | -34.74856 | 152.83462 | 35376 ft | 447 kts | 122° |
| 2026-04-25 05:34 | -34.77910 | 152.89890 | 35378 ft | 436 kts | 122° |
| 2026-04-25 05:35 | -34.80938 | 152.96269 | 35381 ft | 437 kts | 122° |
| 2026-04-25 05:35 | -34.83968 | 153.02669 | 35381 ft | 437 kts | 121° |
| 2026-04-25 05:36 | -34.86992 | 153.09065 | 35386 ft | 436 kts | 122° |
| 2026-04-25 05:36 | -34.90015 | 153.15471 | 35387 ft | 436 kts | 121° |
| 2026-04-25 05:37 | -34.93016 | 153.21845 | 35380 ft | 436 kts | 122° |
| 2026-04-25 05:37 | -34.96037 | 153.28271 | 35383 ft | 436 kts | 121° |
| 2026-04-25 05:38 | -34.99023 | 153.34634 | 35379 ft | 435 kts | 121° |
| 2026-04-25 05:38 | -35.02031 | 153.41057 | 35380 ft | 436 kts | 121° |
| 2026-04-25 05:39 | -35.05008 | 153.47426 | 35379 ft | 435 kts | 121° |
| 2026-04-25 05:39 | -35.08017 | 153.53876 | 35379 ft | 435 kts | 121° |
| 2026-04-25 05:40 | -35.10985 | 153.60249 | 35384 ft | 434 kts | 121° |
| 2026-04-25 05:40 | -35.13963 | 153.66653 | 35388 ft | 433 kts | 121° |
| 2026-04-25 05:41 | -35.16923 | 153.73033 | 35388 ft | 434 kts | 121° |
| 2026-04-25 05:41 | -35.19897 | 153.79456 | 35388 ft | 435 kts | 121° |
| 2026-04-25 05:42 | -35.22863 | 153.85872 | 35386 ft | 432 kts | 121° |
| 2026-04-25 05:42 | -35.25802 | 153.92241 | 35386 ft | 434 kts | 121° |
| 2026-04-25 05:43 | -35.28744 | 153.98630 | 35386 ft | 432 kts | 121° |
| 2026-04-25 05:43 | -35.31701 | 154.05063 | 35386 ft | 433 kts | 121° |
| 2026-04-25 05:44 | -35.34645 | 154.11478 | 35391 ft | 433 kts | 121° |
| 2026-04-25 05:44 | -35.37569 | 154.17864 | 35390 ft | 431 kts | 121° |
| 2026-04-25 05:45 | -35.40493 | 154.24260 | 35389 ft | 433 kts | 121° |
| 2026-04-25 05:45 | -35.43416 | 154.30669 | 35388 ft | 432 kts | 121° |
| 2026-04-25 05:46 | -35.46339 | 154.37088 | 35393 ft | 432 kts | 121° |
| 2026-04-25 05:46 | -35.49253 | 154.43498 | 35394 ft | 432 kts | 121° |
| 2026-04-25 05:47 | -35.52181 | 154.49951 | 35391 ft | 432 kts | 121° |
| 2026-04-25 05:47 | -35.55089 | 154.56374 | 35394 ft | 432 kts | 121° |
| 2026-04-25 05:48 | -35.57995 | 154.62804 | 35398 ft | 432 kts | 121° |
| 2026-04-25 05:48 | -35.60887 | 154.69217 | 35400 ft | 432 kts | 120° |
| 2026-04-25 05:49 | -35.64264 | 154.75293 | 35401 ft | 432 kts | 127° |
| 2026-04-25 05:49 | -35.67766 | 154.81223 | 35404 ft | 430 kts | 127° |
| 2026-04-25 05:50 | -35.71238 | 154.87184 | 35401 ft | 430 kts | 127° |
| 2026-04-25 05:50 | -35.74711 | 154.93195 | 35403 ft | 430 kts | 126° |
| 2026-04-25 05:51 | -35.78165 | 154.99202 | 35403 ft | 429 kts | 126° |
| 2026-04-25 05:51 | -35.81585 | 155.05171 | 35406 ft | 430 kts | 126° |
| 2026-04-25 05:52 | -35.85023 | 155.11185 | 35403 ft | 430 kts | 126° |
| 2026-04-25 05:52 | -35.88454 | 155.17201 | 35407 ft | 431 kts | 126° |
| 2026-04-25 05:53 | -35.91879 | 155.23216 | 35403 ft | 430 kts | 126° |
| 2026-04-25 05:53 | -35.95311 | 155.29256 | 35406 ft | 431 kts | 126° |
| 2026-04-25 05:54 | -35.98718 | 155.35261 | 35404 ft | 429 kts | 126° |
| 2026-04-25 05:54 | -36.03850 | 155.44330 | 35410 ft | 429 kts | 126° |
| 2026-04-25 05:55 | -36.07263 | 155.50374 | 35412 ft | 430 kts | 126° |
| 2026-04-25 05:55 | -36.10669 | 155.56416 | 35416 ft | 430 kts | 126° |
| 2026-04-25 05:56 | -36.14066 | 155.62453 | 35420 ft | 429 kts | 126° |
| 2026-04-25 05:56 | -36.17477 | 155.68524 | 35421 ft | 431 kts | 126° |
| 2026-04-25 05:57 | -36.20893 | 155.74615 | 35423 ft | 431 kts | 126° |
| 2026-04-25 05:57 | -36.24276 | 155.80659 | 35426 ft | 430 kts | 126° |
| 2026-04-25 05:58 | -36.27671 | 155.86736 | 35423 ft | 431 kts | 126° |
| 2026-04-25 05:58 | -36.31085 | 155.92856 | 35426 ft | 430 kts | 125° |
| 2026-04-25 05:59 | -36.34465 | 155.98927 | 35429 ft | 431 kts | 125° |
| 2026-04-25 05:59 | -36.37857 | 156.05029 | 35429 ft | 430 kts | 126° |
| 2026-04-25 06:00 | -36.41249 | 156.11144 | 35430 ft | 431 kts | 126° |
| 2026-04-25 06:00 | -36.44620 | 156.17232 | 35427 ft | 431 kts | 125° |
| 2026-04-25 06:01 | -36.48008 | 156.23360 | 35430 ft | 432 kts | 125° |
| 2026-04-25 06:01 | -36.51394 | 156.29495 | 35429 ft | 432 kts | 125° |
| 2026-04-25 06:02 | -36.54792 | 156.35666 | 35427 ft | 431 kts | 125° |
| 2026-04-25 06:02 | -36.58164 | 156.41797 | 35423 ft | 432 kts | 125° |
| 2026-04-25 06:03 | -36.61547 | 156.47961 | 35425 ft | 432 kts | 125° |
| 2026-04-25 06:03 | -36.64923 | 156.54123 | 35424 ft | 432 kts | 125° |
| 2026-04-25 06:04 | -36.68283 | 156.60268 | 35427 ft | 432 kts | 125° |
| 2026-04-25 06:04 | -36.71668 | 156.66469 | 35425 ft | 432 kts | 124° |
| 2026-04-25 06:05 | -36.75032 | 156.72643 | 35430 ft | 432 kts | 124° |
| 2026-04-25 06:05 | -36.78417 | 156.78867 | 35477 ft | 439 kts | 124° |
| 2026-04-25 06:06 | -36.80113 | 156.81990 | 36022 ft | 439 kts | 124° |
| 2026-04-25 06:06 | -36.81815 | 156.85126 | 36961 ft | 431 kts | 124° |
| 2026-04-25 06:06 | -36.83472 | 156.88184 | 37414 ft | 431 kts | 124° |
| 2026-04-25 06:06 | -36.85140 | 156.91263 | 37423 ft | 429 kts | 124° |
| 2026-04-25 06:07 | -36.88459 | 156.97400 | 37425 ft | 426 kts | 124° |
| 2026-04-25 06:07 | -36.91774 | 157.03540 | 37428 ft | 427 kts | 124° |
| 2026-04-25 06:08 | -36.95083 | 157.09679 | 37425 ft | 427 kts | 124° |
| 2026-04-25 06:08 | -36.98371 | 157.15793 | 37421 ft | 427 kts | 124° |
| 2026-04-25 06:09 | -37.01682 | 157.21959 | 37428 ft | 427 kts | 124° |
| 2026-04-25 06:09 | -37.04973 | 157.28098 | 37424 ft | 427 kts | 124° |
| 2026-04-25 06:10 | -37.08268 | 157.34256 | 37429 ft | 428 kts | 124° |
| 2026-04-25 06:10 | -37.11573 | 157.40446 | 37433 ft | 428 kts | 124° |
| 2026-04-25 06:11 | -37.14866 | 157.46625 | 37436 ft | 428 kts | 124° |
| 2026-04-25 06:11 | -37.18165 | 157.52826 | 37441 ft | 428 kts | 124° |
| 2026-04-25 06:12 | -37.21460 | 157.59032 | 37437 ft | 429 kts | 124° |
| 2026-04-25 06:12 | -37.24766 | 157.65268 | 37437 ft | 430 kts | 124° |
| 2026-04-25 06:13 | -37.28050 | 157.71474 | 37444 ft | 429 kts | 124° |
| 2026-04-25 06:14 | -37.32995 | 157.80841 | 37444 ft | 431 kts | 124° |
| 2026-04-25 06:14 | -37.36296 | 157.87111 | 37446 ft | 430 kts | 124° |
| 2026-04-25 06:15 | -37.39584 | 157.93367 | 37444 ft | 430 kts | 124° |
| 2026-04-25 06:15 | -37.42865 | 157.99622 | 37447 ft | 430 kts | 124° |
| 2026-04-25 06:16 | -37.46148 | 158.05890 | 37452 ft | 431 kts | 124° |
| 2026-04-25 06:16 | -37.49431 | 158.12172 | 37449 ft | 431 kts | 124° |
| 2026-04-25 06:17 | -37.52689 | 158.18417 | 37445 ft | 430 kts | 124° |
| 2026-04-25 06:17 | -37.55989 | 158.24756 | 37451 ft | 439 kts | 124° |
| 2026-04-25 06:18 | -37.59341 | 158.31207 | 37448 ft | 452 kts | 124° |
| 2026-04-25 06:18 | -37.62814 | 158.37907 | 37448 ft | 453 kts | 124° |
| 2026-04-25 06:19 | -37.66242 | 158.44534 | 37445 ft | 453 kts | 124° |
| 2026-04-25 06:19 | -37.69662 | 158.51155 | 37445 ft | 452 kts | 124° |
| 2026-04-25 06:20 | -37.73096 | 158.57819 | 37443 ft | 454 kts | 123° |
| 2026-04-25 06:20 | -37.76529 | 158.64494 | 37443 ft | 453 kts | 123° |
| 2026-04-25 06:21 | -37.79953 | 158.71167 | 37448 ft | 454 kts | 123° |
| 2026-04-25 06:21 | -37.83363 | 158.77823 | 37447 ft | 454 kts | 123° |
| 2026-04-25 06:22 | -37.86710 | 158.84372 | 37451 ft | 454 kts | 123° |
| 2026-04-25 06:22 | -37.90189 | 158.91191 | 37445 ft | 454 kts | 123° |
| 2026-04-25 06:23 | -37.93615 | 158.97920 | 37450 ft | 455 kts | 123° |
| 2026-04-25 06:23 | -37.97026 | 159.04633 | 37446 ft | 455 kts | 123° |
| 2026-04-25 06:24 | -38.00442 | 159.11371 | 37445 ft | 455 kts | 123° |
| 2026-04-25 06:24 | -38.03849 | 159.18105 | 37444 ft | 456 kts | 123° |
| 2026-04-25 06:25 | -38.07257 | 159.24854 | 37443 ft | 455 kts | 123° |
| 2026-04-25 06:25 | -38.10674 | 159.31635 | 37448 ft | 457 kts | 123° |
| 2026-04-25 06:26 | -38.14064 | 159.38377 | 37446 ft | 455 kts | 123° |
| 2026-04-25 06:26 | -38.17473 | 159.45171 | 37447 ft | 457 kts | 123° |
| 2026-04-25 06:27 | -38.20873 | 159.51961 | 37447 ft | 457 kts | 123° |
| 2026-04-25 06:27 | -38.24270 | 159.58757 | 37446 ft | 457 kts | 123° |
| 2026-04-25 06:28 | -38.27673 | 159.65581 | 37446 ft | 457 kts | 122° |
| 2026-04-25 06:28 | -38.31055 | 159.72377 | 37449 ft | 457 kts | 122° |
| 2026-04-25 06:29 | -38.34444 | 159.79202 | 37449 ft | 457 kts | 122° |
| 2026-04-25 06:29 | -38.37820 | 159.86015 | 37448 ft | 458 kts | 122° |
| 2026-04-25 06:30 | -38.41209 | 159.92868 | 37447 ft | 458 kts | 122° |
| 2026-04-25 06:30 | -38.44585 | 159.99709 | 37446 ft | 457 kts | 122° |
| 2026-04-25 06:31 | -38.47960 | 160.06564 | 37448 ft | 458 kts | 122° |
| 2026-04-25 06:31 | -38.51329 | 160.13420 | 37447 ft | 459 kts | 122° |
| 2026-04-25 06:32 | -38.54702 | 160.20297 | 37447 ft | 458 kts | 122° |
| 2026-04-25 06:32 | -38.58094 | 160.27232 | 37446 ft | 459 kts | 122° |
| 2026-04-25 06:33 | -38.61447 | 160.34100 | 37448 ft | 458 kts | 122° |
| 2026-04-25 06:33 | -38.64808 | 160.40997 | 37445 ft | 459 kts | 122° |
| 2026-04-25 06:34 | -38.68176 | 160.47925 | 37446 ft | 459 kts | 122° |
| 2026-04-25 06:34 | -38.71516 | 160.54811 | 37444 ft | 459 kts | 122° |
| 2026-04-25 06:35 | -38.74867 | 160.61732 | 37444 ft | 458 kts | 122° |
| 2026-04-25 06:35 | -38.78230 | 160.68695 | 37451 ft | 461 kts | 121° |
| 2026-04-25 06:36 | -38.81574 | 160.75633 | 37450 ft | 459 kts | 121° |
| 2026-04-25 06:36 | -38.84920 | 160.82591 | 37448 ft | 460 kts | 121° |
| 2026-04-25 06:37 | -38.88270 | 160.89572 | 37447 ft | 459 kts | 121° |
| 2026-04-25 06:37 | -38.91609 | 160.96545 | 37446 ft | 461 kts | 121° |
| 2026-04-25 06:38 | -38.94955 | 161.03548 | 37447 ft | 460 kts | 121° |
| 2026-04-25 06:38 | -38.98286 | 161.10536 | 37445 ft | 461 kts | 121° |
| 2026-04-25 06:39 | -39.01622 | 161.17548 | 37441 ft | 461 kts | 121° |
| 2026-04-25 06:39 | -39.04940 | 161.24539 | 37445 ft | 462 kts | 121° |
| 2026-04-25 06:40 | -39.08278 | 161.31587 | 37444 ft | 461 kts | 121° |
| 2026-04-25 06:40 | -39.11601 | 161.38617 | 37445 ft | 463 kts | 121° |
| 2026-04-25 06:41 | -39.14925 | 161.45670 | 37442 ft | 461 kts | 121° |
| 2026-04-25 06:41 | -39.18261 | 161.52757 | 37441 ft | 464 kts | 121° |
| 2026-04-25 06:42 | -39.21576 | 161.59821 | 37441 ft | 462 kts | 121° |
| 2026-04-25 06:42 | -39.24897 | 161.66913 | 37445 ft | 463 kts | 121° |
| 2026-04-25 06:43 | -39.28199 | 161.73979 | 37442 ft | 463 kts | 121° |
| 2026-04-25 06:43 | -39.31530 | 161.81122 | 37438 ft | 464 kts | 121° |
| 2026-04-25 06:44 | -39.34824 | 161.88202 | 37440 ft | 463 kts | 121° |
| 2026-04-25 06:44 | -39.38152 | 161.95371 | 37442 ft | 464 kts | 121° |
| 2026-04-25 06:45 | -39.41454 | 162.02501 | 37433 ft | 466 kts | 121° |
| 2026-04-25 06:45 | -39.44757 | 162.09651 | 37438 ft | 464 kts | 121° |
| 2026-04-25 06:46 | -39.48060 | 162.16815 | 37432 ft | 466 kts | 121° |
| 2026-04-25 06:46 | -39.51362 | 162.23993 | 37432 ft | 466 kts | 121° |
| 2026-04-25 06:47 | -39.54663 | 162.31186 | 37428 ft | 465 kts | 121° |
| 2026-04-25 06:47 | -39.57945 | 162.38356 | 37428 ft | 466 kts | 121° |
| 2026-04-25 06:48 | -39.61235 | 162.45558 | 37423 ft | 466 kts | 121° |
| 2026-04-25 06:48 | -39.64536 | 162.52800 | 37423 ft | 466 kts | 121° |
| 2026-04-25 06:49 | -39.67810 | 162.60001 | 37419 ft | 467 kts | 121° |
| 2026-04-25 06:49 | -39.71097 | 162.67247 | 37419 ft | 466 kts | 120° |
| 2026-04-25 06:50 | -39.74360 | 162.74455 | 37420 ft | 467 kts | 120° |
| 2026-04-25 06:50 | -39.77647 | 162.81735 | 37416 ft | 467 kts | 120° |
| 2026-04-25 06:51 | -39.80903 | 162.88962 | 37415 ft | 466 kts | 120° |
| 2026-04-25 06:51 | -39.84173 | 162.96237 | 37412 ft | 467 kts | 120° |
| 2026-04-25 06:52 | -39.87433 | 163.03510 | 37409 ft | 467 kts | 120° |
| 2026-04-25 06:52 | -39.90681 | 163.10774 | 37407 ft | 467 kts | 120° |
| 2026-04-25 06:53 | -39.93950 | 163.18103 | 37406 ft | 468 kts | 120° |
| 2026-04-25 06:53 | -39.97194 | 163.25395 | 37404 ft | 468 kts | 120° |
| 2026-04-25 06:54 | -40.00426 | 163.32677 | 37405 ft | 468 kts | 120° |
| 2026-04-25 06:54 | -40.03670 | 163.40001 | 37402 ft | 467 kts | 120° |
| 2026-04-25 06:55 | -40.06903 | 163.47319 | 37402 ft | 467 kts | 120° |
| 2026-04-25 06:55 | -40.10148 | 163.54680 | 37400 ft | 467 kts | 120° |
| 2026-04-25 06:56 | -40.13383 | 163.62039 | 37402 ft | 468 kts | 120° |
| 2026-04-25 06:56 | -40.16591 | 163.69351 | 37400 ft | 467 kts | 120° |
| 2026-04-25 06:57 | -40.19818 | 163.76726 | 37404 ft | 468 kts | 120° |
| 2026-04-25 06:57 | -40.23029 | 163.84079 | 37402 ft | 467 kts | 120° |
| 2026-04-25 06:58 | -40.26237 | 163.91446 | 37400 ft | 467 kts | 120° |
| 2026-04-25 06:58 | -40.29431 | 163.98799 | 37399 ft | 468 kts | 120° |
| 2026-04-25 06:59 | -40.32622 | 164.06160 | 37399 ft | 467 kts | 120° |
| 2026-04-25 06:59 | -40.35823 | 164.13564 | 37396 ft | 467 kts | 120° |
| 2026-04-25 07:00 | -40.39022 | 164.20979 | 37396 ft | 469 kts | 120° |
| 2026-04-25 07:00 | -40.42190 | 164.28343 | 37392 ft | 468 kts | 120° |
| 2026-04-25 07:01 | -40.45404 | 164.35831 | 37389 ft | 470 kts | 120° |
| 2026-04-25 07:01 | -40.48574 | 164.43233 | 37390 ft | 469 kts | 120° |
| 2026-04-25 07:02 | -40.51778 | 164.50734 | 37389 ft | 471 kts | 121° |
| 2026-04-25 07:02 | -40.54958 | 164.58195 | 37393 ft | 472 kts | 120° |
| 2026-04-25 07:03 | -40.58169 | 164.65750 | 37385 ft | 473 kts | 120° |
| 2026-04-25 07:03 | -40.61359 | 164.73276 | 37388 ft | 474 kts | 120° |
| 2026-04-25 07:04 | -40.64546 | 164.80811 | 37382 ft | 474 kts | 120° |
| 2026-04-25 07:04 | -40.67755 | 164.88417 | 37387 ft | 473 kts | 120° |
| 2026-04-25 07:05 | -40.70943 | 164.95991 | 37385 ft | 477 kts | 120° |
| 2026-04-25 07:05 | -40.74133 | 165.03592 | 37387 ft | 476 kts | 120° |
| 2026-04-25 07:06 | -40.77311 | 165.11180 | 37381 ft | 477 kts | 120° |
| 2026-04-25 07:06 | -40.80497 | 165.18810 | 37376 ft | 476 kts | 120° |
| 2026-04-25 07:07 | -40.83685 | 165.26463 | 37379 ft | 477 kts | 120° |
| 2026-04-25 07:07 | -40.86871 | 165.34128 | 37380 ft | 477 kts | 120° |
| 2026-04-25 07:08 | -40.90031 | 165.41754 | 37375 ft | 477 kts | 120° |
| 2026-04-25 07:08 | -40.93213 | 165.49451 | 37377 ft | 476 kts | 120° |
| 2026-04-25 07:09 | -40.96372 | 165.57112 | 37373 ft | 476 kts | 120° |
| 2026-04-25 07:09 | -40.99528 | 165.64784 | 37373 ft | 477 kts | 120° |
| 2026-04-25 07:10 | -41.02677 | 165.72463 | 37368 ft | 477 kts | 119° |
| 2026-04-25 07:10 | -41.05833 | 165.80174 | 37365 ft | 476 kts | 119° |
| 2026-04-25 07:11 | -41.08969 | 165.87857 | 37361 ft | 477 kts | 119° |
| 2026-04-25 07:11 | -41.12117 | 165.95592 | 37370 ft | 477 kts | 119° |
| 2026-04-25 07:12 | -41.15244 | 166.03294 | 37362 ft | 476 kts | 119° |
| 2026-04-25 07:12 | -41.19935 | 166.14885 | 37356 ft | 477 kts | 119° |
| 2026-04-25 07:13 | -41.23066 | 166.22646 | 37356 ft | 477 kts | 119° |
| 2026-04-25 07:13 | -41.26182 | 166.30391 | 37357 ft | 477 kts | 119° |
| 2026-04-25 07:14 | -41.29290 | 166.38138 | 37353 ft | 478 kts | 120° |
| 2026-04-25 07:14 | -41.32409 | 166.45931 | 37354 ft | 478 kts | 120° |
| 2026-04-25 07:15 | -41.35507 | 166.53693 | 37350 ft | 477 kts | 120° |
| 2026-04-25 07:15 | -41.38614 | 166.61497 | 37350 ft | 479 kts | 120° |
| 2026-04-25 07:16 | -41.41724 | 166.69330 | 37347 ft | 478 kts | 119° |
| 2026-04-25 07:16 | -41.44820 | 166.77147 | 37346 ft | 481 kts | 119° |
| 2026-04-25 07:17 | -41.47924 | 166.85010 | 37344 ft | 479 kts | 119° |
| 2026-04-25 07:17 | -41.51014 | 166.92853 | 37344 ft | 481 kts | 119° |
| 2026-04-25 07:18 | -41.54097 | 167.00702 | 37342 ft | 480 kts | 119° |
| 2026-04-25 07:18 | -41.57185 | 167.08583 | 37343 ft | 480 kts | 119° |
| 2026-04-25 07:19 | -41.60278 | 167.16501 | 37338 ft | 480 kts | 119° |
| 2026-04-25 07:19 | -41.63356 | 167.24399 | 37339 ft | 480 kts | 119° |
| 2026-04-25 07:20 | -41.66421 | 167.32286 | 37335 ft | 481 kts | 119° |
| 2026-04-25 07:20 | -41.69490 | 167.40205 | 37333 ft | 482 kts | 119° |
| 2026-04-25 07:21 | -41.72566 | 167.48166 | 37334 ft | 481 kts | 120° |
| 2026-04-25 07:21 | -41.75624 | 167.56099 | 37330 ft | 482 kts | 119° |
| 2026-04-25 07:22 | -41.78687 | 167.64069 | 37322 ft | 482 kts | 120° |
| 2026-04-25 07:22 | -41.81735 | 167.72018 | 37313 ft | 483 kts | 119° |
| 2026-04-25 07:23 | -41.84793 | 167.80020 | 37316 ft | 483 kts | 119° |
| 2026-04-25 07:23 | -41.87844 | 167.88025 | 37313 ft | 481 kts | 119° |
| 2026-04-25 07:24 | -41.90884 | 167.96021 | 37309 ft | 485 kts | 119° |
| 2026-04-25 07:24 | -41.93922 | 168.04036 | 37302 ft | 484 kts | 119° |
| 2026-04-25 07:25 | -41.96970 | 168.12097 | 37304 ft | 484 kts | 119° |
| 2026-04-25 07:25 | -41.99983 | 168.20090 | 37299 ft | 484 kts | 119° |
| 2026-04-25 07:26 | -42.03028 | 168.28191 | 37298 ft | 484 kts | 119° |
| 2026-04-25 07:26 | -42.06028 | 168.36195 | 37299 ft | 484 kts | 119° |
| 2026-04-25 07:27 | -42.09050 | 168.44279 | 37296 ft | 484 kts | 119° |
| 2026-04-25 07:27 | -42.12055 | 168.52341 | 37303 ft | 484 kts | 119° |
| 2026-04-25 07:28 | -42.15059 | 168.60422 | 37302 ft | 484 kts | 119° |
| 2026-04-25 07:28 | -42.18069 | 168.68544 | 37296 ft | 484 kts | 118° |
| 2026-04-25 07:29 | -42.21067 | 168.76656 | 37294 ft | 485 kts | 118° |
| 2026-04-25 07:29 | -42.24047 | 168.84743 | 37292 ft | 485 kts | 119° |
| 2026-04-25 07:30 | -42.27042 | 168.92892 | 37285 ft | 485 kts | 119° |
| 2026-04-25 07:30 | -42.30018 | 169.01015 | 37292 ft | 484 kts | 119° |
| 2026-04-25 07:31 | -42.32994 | 169.09158 | 37282 ft | 486 kts | 119° |
| 2026-04-25 07:31 | -42.35954 | 169.17285 | 37288 ft | 486 kts | 119° |
| 2026-04-25 07:32 | -42.39418 | 169.26822 | 37284 ft | 485 kts | 119° |
| 2026-04-25 07:32 | -42.41845 | 169.33641 | 37268 ft | 487 kts | 115° |
| 2026-04-25 07:33 | -42.44284 | 169.42221 | 37273 ft | 489 kts | 113° |
| 2026-04-25 07:33 | -42.46650 | 169.50795 | 37273 ft | 489 kts | 113° |
| 2026-04-25 07:34 | -42.49003 | 169.59381 | 37273 ft | 488 kts | 113° |
| 2026-04-25 07:34 | -42.51337 | 169.67943 | 37267 ft | 488 kts | 112° |
| 2026-04-25 07:35 | -42.53677 | 169.76559 | 37266 ft | 489 kts | 112° |
| 2026-04-25 07:35 | -42.56017 | 169.85210 | 37263 ft | 490 kts | 112° |
| 2026-04-25 07:36 | -42.58340 | 169.93832 | 37261 ft | 490 kts | 112° |
| 2026-04-25 07:36 | -42.60655 | 170.02457 | 37260 ft | 489 kts | 112° |
| 2026-04-25 07:37 | -42.62976 | 170.11134 | 37265 ft | 492 kts | 112° |
| 2026-04-25 07:37 | -42.65295 | 170.19836 | 37261 ft | 490 kts | 112° |
| 2026-04-25 07:38 | -42.67585 | 170.28461 | 37263 ft | 490 kts | 112° |
| 2026-04-25 07:38 | -42.69895 | 170.37189 | 37221 ft | 489 kts | 113° |
| 2026-04-25 07:39 | -42.71025 | 170.41476 | 36526 ft | 487 kts | 113° |
| 2026-04-25 07:39 | -42.72176 | 170.45844 | 35467 ft | 490 kts | 112° |
| 2026-04-25 07:39 | -42.73309 | 170.50153 | 34556 ft | 491 kts | 112° |
| 2026-04-25 07:39 | -42.74448 | 170.54489 | 33744 ft | 490 kts | 112° |
| 2026-04-25 07:40 | -42.75592 | 170.58855 | 32906 ft | 491 kts | 112° |
| 2026-04-25 07:40 | -42.76728 | 170.63200 | 31974 ft | 494 kts | 112° |
| 2026-04-25 07:40 | -42.77882 | 170.67619 | 31017 ft | 497 kts | 111° |
| 2026-04-25 07:40 | -42.79029 | 170.72023 | 30371 ft | 493 kts | 111° |
| 2026-04-25 07:41 | -42.80154 | 170.76349 | 29887 ft | 486 kts | 111° |
| 2026-04-25 07:41 | -42.81268 | 170.80646 | 29330 ft | 486 kts | 111° |
| 2026-04-25 07:41 | -42.82419 | 170.85082 | 28715 ft | 497 kts | 111° |
| 2026-04-25 07:41 | -42.83553 | 170.89462 | 28091 ft | 495 kts | 111° |
| 2026-04-25 07:42 | -42.84685 | 170.93852 | 27455 ft | 490 kts | 111° |
| 2026-04-25 07:42 | -42.85795 | 170.98161 | 26835 ft | 485 kts | 111° |
| 2026-04-25 07:42 | -42.86912 | 171.02506 | 26187 ft | 480 kts | 111° |
| 2026-04-25 07:42 | -42.87998 | 171.06735 | 25546 ft | 476 kts | 111° |
| 2026-04-25 07:43 | -42.89067 | 171.10907 | 24912 ft | 471 kts | 111° |
| 2026-04-25 07:43 | -42.90144 | 171.15115 | 24260 ft | 467 kts | 111° |
| 2026-04-25 07:43 | -42.91213 | 171.19304 | 23607 ft | 463 kts | 111° |
| 2026-04-25 07:43 | -42.92260 | 171.23412 | 22961 ft | 459 kts | 111° |
| 2026-04-25 07:44 | -42.93288 | 171.27451 | 22324 ft | 455 kts | 111° |
| 2026-04-25 07:44 | -42.94318 | 171.31500 | 21682 ft | 451 kts | 111° |
| 2026-04-25 07:44 | -42.95337 | 171.35519 | 21024 ft | 448 kts | 111° |
| 2026-04-25 07:44 | -42.96344 | 171.39493 | 20374 ft | 444 kts | 111° |
| 2026-04-25 07:45 | -42.97335 | 171.43414 | 19714 ft | 440 kts | 110° |
| 2026-04-25 07:45 | -42.98330 | 171.47359 | 19037 ft | 437 kts | 110° |
| 2026-04-25 07:45 | -42.99444 | 171.51170 | 18374 ft | 431 kts | 118° |
| 2026-04-25 07:45 | -43.00947 | 171.54671 | 17735 ft | 425 kts | 124° |
| 2026-04-25 07:46 | -43.02529 | 171.58025 | 17080 ft | 421 kts | 124° |
| 2026-04-25 07:46 | -43.04089 | 171.61324 | 16429 ft | 417 kts | 125° |
| 2026-04-25 07:46 | -43.05644 | 171.64624 | 15796 ft | 413 kts | 124° |
| 2026-04-25 07:46 | -43.07181 | 171.67892 | 15142 ft | 409 kts | 124° |
| 2026-04-25 07:47 | -43.08705 | 171.71141 | 14501 ft | 406 kts | 124° |
| 2026-04-25 07:47 | -43.10222 | 171.74379 | 13857 ft | 402 kts | 124° |
| 2026-04-25 07:47 | -43.11725 | 171.77594 | 13156 ft | 401 kts | 124° |
| 2026-04-25 07:47 | -43.13334 | 171.80644 | 12440 ft | 397 kts | 133° |
| 2026-04-25 07:48 | -43.15277 | 171.83284 | 11691 ft | 386 kts | 139° |
| 2026-04-25 07:48 | -43.17210 | 171.85675 | 11144 ft | 367 kts | 140° |
| 2026-04-25 07:48 | -43.19049 | 171.87941 | 10898 ft | 340 kts | 140° |
| 2026-04-25 07:48 | -43.20716 | 171.89998 | 10856 ft | 313 kts | 140° |
| 2026-04-25 07:49 | -43.22278 | 171.91925 | 10759 ft | 291 kts | 140° |
| 2026-04-25 07:49 | -43.23732 | 171.93721 | 10622 ft | 273 kts | 140° |
| 2026-04-25 07:49 | -43.25102 | 171.95413 | 10563 ft | 272 kts | 140° |
| 2026-04-25 07:49 | -43.26539 | 171.97188 | 10380 ft | 275 kts | 140° |
| 2026-04-25 07:50 | -43.27953 | 171.98940 | 10239 ft | 275 kts | 140° |
| 2026-04-25 07:50 | -43.29372 | 172.00699 | 10075 ft | 278 kts | 140° |
| 2026-04-25 07:50 | -43.30815 | 172.02486 | 9599 ft | 283 kts | 140° |
| 2026-04-25 07:50 | -43.32287 | 172.04308 | 9114 ft | 286 kts | 140° |
| 2026-04-25 07:51 | -43.33757 | 172.06130 | 8813 ft | 280 kts | 140° |
| 2026-04-25 07:51 | -43.35175 | 172.07890 | 8401 ft | 279 kts | 140° |
| 2026-04-25 07:51 | -43.36626 | 172.09691 | 7842 ft | 280 kts | 139° |
| 2026-04-25 07:51 | -43.38034 | 172.11441 | 7459 ft | 271 kts | 139° |
| 2026-04-25 07:52 | -43.39432 | 172.13178 | 7012 ft | 267 kts | 139° |
| 2026-04-25 07:52 | -43.40778 | 172.14851 | 6594 ft | 262 kts | 140° |
| 2026-04-25 07:52 | -43.42147 | 172.16554 | 6166 ft | 265 kts | 139° |
| 2026-04-25 07:52 | -43.43519 | 172.18263 | 5767 ft | 266 kts | 139° |
| 2026-04-25 07:53 | -43.44861 | 172.19939 | 5540 ft | 261 kts | 139° |
| 2026-04-25 07:53 | -43.46187 | 172.21596 | 5309 ft | 255 kts | 139° |
| 2026-04-25 07:53 | -43.47483 | 172.23216 | 5070 ft | 251 kts | 139° |
| 2026-04-25 07:53 | -43.48767 | 172.24820 | 4834 ft | 247 kts | 139° |
| 2026-04-25 07:54 | -43.50029 | 172.26399 | 4605 ft | 243 kts | 139° |
| 2026-04-25 07:54 | -43.51282 | 172.27969 | 4363 ft | 240 kts | 140° |
| 2026-04-25 07:54 | -43.52497 | 172.29491 | 4132 ft | 237 kts | 140° |
| 2026-04-25 07:54 | -43.53712 | 172.31014 | 3893 ft | 234 kts | 139° |
| 2026-04-25 07:55 | -43.54898 | 172.32501 | 3681 ft | 230 kts | 140° |
| 2026-04-25 07:55 | -43.56032 | 172.34064 | 3462 ft | 228 kts | 134° |
| 2026-04-25 07:55 | -43.57053 | 172.35692 | 3237 ft | 226 kts | 133° |
| 2026-04-25 07:55 | -43.58067 | 172.37343 | 3013 ft | 224 kts | 129° |
| 2026-04-25 07:56 | -43.58651 | 172.39220 | 2761 ft | 208 kts | 97° |
| 2026-04-25 07:56 | -43.58519 | 172.41133 | 2540 ft | 195 kts | 75° |
| 2026-04-25 07:56 | -43.57992 | 172.42780 | 2269 ft | 185 kts | 50° |
| 2026-04-25 07:56 | -43.57035 | 172.43870 | 2024 ft | 174 kts | 36° |
| 2026-04-25 07:57 | -43.56113 | 172.44873 | 1800 ft | 166 kts | 40° |
| 2026-04-25 07:57 | -43.55249 | 172.45891 | 1581 ft | 159 kts | 39° |
| 2026-04-25 07:57 | -43.54419 | 172.46845 | 1378 ft | 154 kts | 39° |
| 2026-04-25 07:57 | -43.53592 | 172.47789 | 1132 ft | 154 kts | 39° |
| 2026-04-25 07:58 | -43.52770 | 172.48730 | 915 ft | 151 kts | 40° |
| 2026-04-25 07:58 | -43.51995 | 172.49678 | 703 ft | 149 kts | 41° |
| 2026-04-25 07:58 | -43.51206 | 172.50572 | 488 ft | 146 kts | 36° |
| 2026-04-25 07:58 | -43.50419 | 172.51460 | 324 ft | 146 kts | 40° |
| 2026-04-25 07:59 | -43.49639 | 172.52361 | 178 ft | 148 kts | 40° |
| 2026-04-25 07:59 | -43.48893 | 172.53217 | 139 ft | 124 kts | 40° |
| 2026-04-25 07:59 | -43.48320 | 172.53874 | 138 ft | 87 kts | 40° |
| 2026-04-25 07:59 | -43.47968 | 172.54282 | 138 ft | 54 kts | 40° |
| 2026-04-25 08:00 | -43.47697 | 172.54593 | 138 ft | 45 kts | 39° |
| 2026-04-25 08:00 | -43.47549 | 172.54805 | 138 ft | 17 kts | 75° |
| 2026-04-25 08:00 | -43.47602 | 172.54892 | 138 ft | 9 kts | 165° |
| 2026-04-25 08:00 | -43.47669 | 172.54913 | 138 ft | 9 kts | 175° |
| 2026-04-25 08:01 | -43.47736 | 172.54890 | 138 ft | 10 kts | 207° |
| 2026-04-25 08:01 | -43.47793 | 172.54831 | 138 ft | 10 kts | 220° |
| 2026-04-25 08:01 | -43.47849 | 172.54768 | 138 ft | 10 kts | 220° |
| 2026-04-25 08:01 | -43.47907 | 172.54701 | 138 ft | 11 kts | 220° |
| 2026-04-25 08:02 | -43.47975 | 172.54620 | 138 ft | 14 kts | 222° |
| 2026-04-25 08:02 | -43.48055 | 172.54527 | 138 ft | 15 kts | 221° |
| 2026-04-25 08:02 | -43.48143 | 172.54425 | 138 ft | 17 kts | 220° |
| 2026-04-25 08:02 | -43.48239 | 172.54314 | 138 ft | 18 kts | 220° |
| 2026-04-25 08:03 | -43.48344 | 172.54193 | 138 ft | 20 kts | 220° |
| 2026-04-25 08:03 | -43.48454 | 172.54079 | 138 ft | 19 kts | 195° |
| 2026-04-25 08:03 | -43.48557 | 172.54155 | 138 ft | 15 kts | 134° |
| 2026-04-25 08:03 | -43.48613 | 172.54178 | 138 ft | 4 kts | 205° |
| 2026-04-25 08:04 | -43.48634 | 172.54160 | 138 ft | 5 kts | 210° |
| 2026-04-25 08:04 | -43.48642 | 172.54156 | 138 ft | 3 kts | 185° |
| 2026-04-25 08:04 | -43.48663 | 172.54228 | 138 ft | 14 kts | 57° |
| 2026-04-25 08:04 | -43.48620 | 172.54237 | 138 ft | 7 kts | 275° |
| 2026-04-25 08:05 | -43.48647 | 172.54176 | 138 ft | 6 kts | 225° |
| 2026-04-25 08:05 | -43.48658 | 172.54164 | 138 ft | 0 kts | 220° |